Time;durP1;ratioP1;P1;durP2;ratioP2;P2;SDS_P1;SDS_P2;PMS_P1;PMS_P2;Temp;Humidity;BMP_temperature;BMP_pressure;BME280_temperature;BME280_humidity;BME280_pressure;Samples;Min_cycle;Max_cycle;Signal;HPM_P1;HPM_P2
2021/09/20 00:00:33;;;;;;;1.67;1.00;;;;;;;12.68;46.17;102052.63;5006726;28;20495;-70
2021/09/20 00:02:59;;;;;;;2.78;1.35;;;;;;;12.70;46.44;102056.09;5005695;28;20068;-70
2021/09/20 00:05:25;;;;;;;4.18;0.77;;;;;;;12.70;46.24;102053.47;5005391;28;20034;-71
2021/09/20 00:07:50;;;;;;;3.97;1.17;;;;;;;12.74;45.81;102056.03;5004838;28;20118;-70
2021/09/20 00:10:16;;;;;;;1.95;0.85;;;;;;;12.76;45.62;102054.19;5006264;28;20042;-70
2021/09/20 00:12:41;;;;;;;3.22;1.13;;;;;;;12.76;45.62;102056.81;5004852;28;20092;-71
2021/09/20 00:15:09;;;;;;;3.97;0.98;;;;;;;12.75;45.81;102058.59;5006643;28;20080;-71
2021/09/20 00:17:35;;;;;;;4.32;1.55;;;;;;;12.70;45.75;102055.25;5005630;28;20121;-71
2021/09/20 00:20:00;;;;;;;2.08;1.02;;;;;;;12.72;45.92;102052.59;5004992;28;20034;-71
2021/09/20 00:22:26;;;;;;;4.68;0.82;;;;;;;12.61;46.03;102056.34;5005676;28;20590;-71
2021/09/20 00:24:52;;;;;;;6.40;1.83;;;;;;;12.61;46.05;102056.34;5005792;28;20026;-71
2021/09/20 00:27:17;;;;;;;2.55;1.02;;;;;;;12.63;46.24;102053.69;5006921;28;20042;-68
2021/09/20 00:29:43;;;;;;;3.80;0.95;;;;;;;12.65;46.13;102057.97;4998766;28;20053;-68
2021/09/20 00:32:08;;;;;;;3.33;1.08;;;;;;;12.53;46.52;102055.72;5005379;28;20501;-68
2021/09/20 00:34:34;;;;;;;1.92;0.95;;;;;;;12.36;47.15;102058.84;4994708;28;20046;-68
2021/09/20 00:37:00;;;;;;;3.75;1.05;;;;;;;12.31;47.22;102058.09;5004251;28;20034;-69
2021/09/20 00:39:25;;;;;;;3.42;0.70;;;;;;;12.49;46.91;102067.19;5004783;28;20386;-71
2021/09/20 00:41:51;;;;;;;2.03;0.93;;;;;;;12.52;46.99;102051.38;5021002;28;20042;-71
2021/09/20 00:44:16;;;;;;;2.00;1.10;;;;;;;12.58;46.79;102051.22;5005857;28;20122;-70
2021/09/20 00:46:42;;;;;;;1.75;1.00;;;;;;;12.56;46.69;102058.25;5004127;28;20072;-70
2021/09/20 00:49:08;;;;;;;2.05;1.00;;;;;;;12.49;47.10;102054.06;5005067;28;20034;-70
2021/09/20 00:51:33;;;;;;;5.22;0.88;;;;;;;12.48;47.09;102053.22;5001408;28;20505;-69
2021/09/20 00:53:59;;;;;;;1.65;0.80;;;;;;;12.46;47.28;102051.56;5007539;28;20080;-70
2021/09/20 00:56:26;;;;;;;2.65;1.15;;;;;;;12.43;47.55;102056.91;5004345;28;20329;-70
2021/09/20 00:58:51;;;;;;;1.90;1.00;;;;;;;12.43;47.39;102051.66;5003358;28;20128;-67
2021/09/20 01:01:17;;;;;;;3.72;0.80;;;;;;;12.42;47.29;102055.16;5004563;28;20144;-67
2021/09/20 01:03:45;;;;;;;2.67;1.35;;;;;;;12.44;47.58;102048.97;5005691;28;20080;-67
2021/09/20 01:06:10;;;;;;;4.43;1.00;;;;;;;12.42;47.56;102052.53;5003902;28;20261;-67
2021/09/20 01:08:36;;;;;;;4.10;1.75;;;;;;;12.41;47.53;102054.31;5003876;28;20368;-67
2021/09/20 01:11:02;;;;;;;2.95;1.33;;;;;;;12.36;47.69;102052.75;5002251;28;20038;-67
2021/09/20 01:13:27;;;;;;;3.30;0.90;;;;;;;12.37;47.71;102052.69;5004634;28;20041;-67
2021/09/20 01:15:53;;;;;;;1.85;0.80;;;;;;;12.41;47.63;102053.47;5003292;28;20038;-68
2021/09/20 01:18:19;;;;;;;1.50;0.90;;;;;;;12.40;47.53;102054.34;4995464;28;20042;-67
2021/09/20 01:20:45;;;;;;;3.70;0.80;;;;;;;12.44;47.67;102054.22;5004711;28;20359;-67
2021/09/20 01:23:10;;;;;;;1.23;0.75;;;;;;;12.41;47.43;102053.47;5004186;28;20036;-75
2021/09/20 01:25:36;;;;;;;1.83;0.90;;;;;;;12.41;47.70;102058.69;5005062;28;20044;-75
2021/09/20 01:28:02;;;;;;;2.20;0.93;;;;;;;12.34;47.74;102060.63;5005379;28;20280;-75
2021/09/20 01:30:28;;;;;;;3.70;0.88;;;;;;;12.33;47.88;102058.91;5005041;28;20038;-75
2021/09/20 01:32:53;;;;;;;4.30;0.98;;;;;;;12.34;47.84;102052.78;5000477;28;20040;-75
2021/09/20 01:35:20;;;;;;;4.65;0.47;;;;;;;12.36;47.96;102055.38;5004878;28;20076;-73
2021/09/20 01:37:46;;;;;;;2.92;0.90;;;;;;;12.32;47.94;102057.19;5005656;28;20025;-73
2021/09/20 01:40:12;;;;;;;1.52;0.70;;;;;;;12.27;48.11;102052.09;5001485;28;20048;-72
2021/09/20 01:42:39;;;;;;;4.68;0.82;;;;;;;12.26;48.03;102060.00;5005789;28;20403;-73
2021/09/20 01:45:05;;;;;;;1.45;0.70;;;;;;;12.28;48.25;102050.31;5005849;28;20037;-73
2021/09/20 01:47:31;;;;;;;3.83;1.08;;;;;;;12.29;48.35;102055.53;5004712;28;20046;-73
2021/09/20 01:49:56;;;;;;;5.22;0.82;;;;;;;12.19;48.21;102055.81;5002641;28;20549;-67
2021/09/20 01:52:22;;;;;;;1.42;0.80;;;;;;;12.20;48.43;102054.91;5004525;28;20073;-69
2021/09/20 01:54:48;;;;;;;2.63;0.80;;;;;;;12.21;48.34;102052.25;5003878;28;20038;-69
2021/09/20 01:57:13;;;;;;;1.83;1.23;;;;;;;12.01;48.69;102049.34;5003072;28;20120;-69
2021/09/20 01:59:41;;;;;;;3.13;0.60;;;;;;;11.84;48.94;102045.41;5002858;28;20042;-69
2021/09/20 02:02:06;;;;;;;1.38;0.70;;;;;;;11.78;49.52;102052.59;5004017;28;20132;-73
2021/09/20 02:04:32;;;;;;;3.65;0.85;;;;;;;11.80;49.38;102051.63;5000699;28;20112;-71
2021/09/20 02:06:57;;;;;;;1.58;0.85;;;;;;;11.87;48.92;102047.94;5004417;28;21144;-71
2021/09/20 02:09:23;;;;;;;3.55;0.80;;;;;;;11.72;49.05;102053.56;5002773;28;20397;-71
2021/09/20 02:11:48;;;;;;;1.65;0.60;;;;;;;11.86;48.69;102051.44;5005926;28;20029;-71
2021/09/20 02:14:14;;;;;;;2.25;1.00;;;;;;;11.84;48.71;102053.28;5002903;28;20513;-71
2021/09/20 02:16:40;;;;;;;3.63;1.38;;;;;;;11.79;48.76;102046.44;5004351;28;20037;-71
2021/09/20 02:19:06;;;;;;;4.40;0.90;;;;;;;11.77;48.96;102051.69;5003876;28;20030;-70
2021/09/20 02:21:31;;;;;;;1.83;1.08;;;;;;;11.73;48.90;102047.44;4985335;28;20511;-70
2021/09/20 02:23:57;;;;;;;3.67;0.88;;;;;;;11.74;49.03;102046.53;5004280;28;20144;-70
2021/09/20 02:26:23;;;;;;;3.33;1.08;;;;;;;11.73;48.98;102050.06;5002605;28;20052;-73
2021/09/20 02:28:48;;;;;;;5.97;1.42;;;;;;;11.81;49.13;102055.97;5004948;28;20030;-74
2021/09/20 02:31:13;;;;;;;1.45;0.60;;;;;;;11.85;48.94;102056.75;5004920;28;20443;-74
2021/09/20 02:33:40;;;;;;;2.75;0.88;;;;;;;11.83;48.72;102056.78;5004366;28;20037;-73
2021/09/20 02:36:07;;;;;;;2.63;0.52;;;;;;;11.81;48.46;102052.50;5005715;28;20057;-74
2021/09/20 02:38:33;;;;;;;8.55;0.70;;;;;;;11.83;48.85;102061.16;5002541;28;20544;-74
2021/09/20 02:41:00;;;;;;;3.67;0.85;;;;;;;11.81;48.51;102069.06;5004300;28;20038;-73
2021/09/20 02:43:25;;;;;;;1.67;0.90;;;;;;;11.77;48.78;102056.94;5003779;28;20038;-73
2021/09/20 02:45:52;;;;;;;2.90;0.60;;;;;;;11.74;48.79;102067.47;4993860;28;20080;-74
2021/09/20 02:48:17;;;;;;;2.67;1.00;;;;;;;11.73;48.43;102060.53;5003607;28;20184;-74
2021/09/20 02:50:43;;;;;;;1.58;1.08;;;;;;;11.61;49.01;102066.91;5005730;28;20062;-74
2021/09/20 02:53:08;;;;;;;2.67;1.13;;;;;;;11.59;48.99;102067.88;4999593;28;20509;-73
2021/09/20 02:55:34;;;;;;;3.67;0.70;;;;;;;11.65;49.00;102067.72;5003195;28;20042;-69
2021/09/20 02:57:59;;;;;;;3.58;0.95;;;;;;;11.62;48.93;102073.00;5002707;28;20060;-69
2021/09/20 03:00:25;;;;;;;2.83;0.75;;;;;;;11.63;49.11;102066.88;5003059;28;20410;-69
2021/09/20 03:02:51;;;;;;;2.67;0.65;;;;;;;11.81;48.73;102069.06;5003135;28;20087;-70
2021/09/20 03:05:16;;;;;;;4.70;0.70;;;;;;;11.91;48.56;102074.06;5004104;28;20038;-69
2021/09/20 03:07:42;;;;;;;3.17;1.02;;;;;;;11.86;48.27;102080.28;5006673;28;20423;-69
2021/09/20 03:10:08;;;;;;;1.70;0.82;;;;;;;11.81;48.62;102079.53;5006331;28;20058;-71
2021/09/20 03:12:33;;;;;;;3.28;0.82;;;;;;;11.78;49.02;102082.25;5006570;28;20410;-69
2021/09/20 03:14:59;;;;;;;1.27;0.70;;;;;;;11.86;48.86;102075.03;5006292;28;20038;-69
2021/09/20 03:17:25;;;;;;;2.05;0.70;;;;;;;11.84;48.22;102073.34;5007190;28;20088;-70
2021/09/20 03:19:50;;;;;;;8.27;1.23;;;;;;;11.86;48.40;102080.28;5008220;28;21123;-70
2021/09/20 03:22:15;;;;;;;4.93;0.88;;;;;;;11.86;48.27;102082.88;5007096;28;20030;-70
2021/09/20 03:24:41;;;;;;;3.72;0.95;;;;;;;11.76;48.35;102078.78;5006347;28;20103;-76
2021/09/20 03:27:47;;;;;;;1.23;0.70;;;;;;;11.87;48.09;102084.63;5007856;28;20482;-70
2021/09/20 03:30:14;;;;;;;2.55;0.70;;;;;;;12.00;47.81;102093.03;5005389;28;20057;-70
2021/09/20 03:32:40;;;;;;;1.95;0.40;;;;;;;11.73;48.42;102096.31;5005872;28;20565;-72
2021/09/20 03:35:07;;;;;;;6.03;1.17;;;;;;;11.64;48.77;102102.63;5007024;28;20072;-71
2021/09/20 03:37:32;;;;;;;3.00;0.73;;;;;;;11.68;48.21;102099.91;5003217;28;20030;-71
2021/09/20 03:39:58;;;;;;;3.50;0.50;;;;;;;11.67;48.49;102097.34;5006113;28;20030;-68
2021/09/20 03:42:23;;;;;;;1.77;0.60;;;;;;;11.52;48.78;102097.72;5006795;28;20105;-70
2021/09/20 03:44:48;;;;;;;2.78;1.15;;;;;;;11.41;48.73;102096.22;5005229;28;20022;-70
2021/09/20 03:47:14;;;;;;;3.33;1.15;;;;;;;11.43;48.76;102102.28;5005955;28;20088;-69
2021/09/20 03:49:39;;;;;;;2.97;1.00;;;;;;;11.28;49.12;102105.25;5005382;28;20040;-71
2021/09/20 03:52:05;;;;;;;3.70;0.90;;;;;;;11.33;49.08;102105.13;5006665;28;20498;-71
2021/09/20 03:54:31;;;;;;;4.50;0.75;;;;;;;11.37;48.93;102107.66;5005174;28;20049;-72
2021/09/20 03:56:56;;;;;;;3.30;0.90;;;;;;;11.33;48.74;102119.13;5005786;28;20041;-71
2021/09/20 03:59:22;;;;;;;3.85;1.02;;;;;;;11.22;49.18;102111.50;5006174;28;20087;-70
2021/09/20 04:01:47;;;;;;;4.70;0.88;;;;;;;11.29;49.10;102114.00;5006043;28;20123;-73
2021/09/20 04:04:12;;;;;;;3.60;0.93;;;;;;;11.19;49.27;102108.94;5005973;28;20033;-75
2021/09/20 04:06:38;;;;;;;2.38;0.88;;;;;;;11.29;49.07;102114.00;5005298;28;20029;-69
2021/09/20 04:09:03;;;;;;;2.42;0.93;;;;;;;11.32;49.34;102106.06;5005722;28;20129;-69
2021/09/20 04:11:29;;;;;;;2.05;0.70;;;;;;;11.29;48.92;102117.47;5003881;28;20073;-70
2021/09/20 04:13:55;;;;;;;3.17;0.88;;;;;;;11.19;49.25;102111.56;5005968;28;20249;-72
2021/09/20 04:16:21;;;;;;;2.88;0.82;;;;;;;11.16;49.42;102106.41;5006422;28;20100;-73
2021/09/20 04:18:47;;;;;;;4.80;0.93;;;;;;;11.27;49.25;102114.00;5000281;28;20037;-73
2021/09/20 04:21:12;;;;;;;2.88;1.42;;;;;;;11.29;49.22;102121.84;5006139;28;20167;-71
2021/09/20 04:23:38;;;;;;;1.98;0.88;;;;;;;11.34;48.82;102109.50;5019082;28;20034;-71
2021/09/20 04:26:03;;;;;;;3.83;0.98;;;;;;;11.37;48.88;102114.66;4999531;28;20044;-71
2021/09/20 04:28:29;;;;;;;3.20;0.70;;;;;;;11.35;48.98;102111.19;5004490;28;20221;-71
2021/09/20 04:30:54;;;;;;;3.58;1.05;;;;;;;11.23;49.64;102122.81;5005420;28;20029;-72
2021/09/20 04:33:21;;;;;;;2.72;0.90;;;;;;;11.27;49.42;102129.72;5005571;28;20351;-69
2021/09/20 04:35:47;;;;;;;6.30;1.30;;;;;;;11.34;48.99;102131.28;5005395;28;20129;-69
2021/09/20 04:38:13;;;;;;;2.50;0.93;;;;;;;11.30;49.28;102129.63;5004855;28;20120;-67
2021/09/20 04:40:40;;;;;;;1.80;0.65;;;;;;;11.31;49.14;102127.88;5006092;28;20117;-73
2021/09/20 04:43:08;;;;;;;3.28;0.95;;;;;;;11.33;49.43;102132.19;5006181;28;20049;-73
2021/09/20 04:45:34;;;;;;;3.38;0.82;;;;;;;11.40;49.29;102143.41;5006510;28;20028;-70
2021/09/20 04:48:00;;;;;;;2.03;0.70;;;;;;;11.34;49.38;102141.75;4993414;28;20030;-73
2021/09/20 04:50:26;;;;;;;2.30;0.80;;;;;;;11.36;49.10;102144.34;5005471;28;20037;-74
2021/09/20 04:52:52;;;;;;;1.92;0.55;;;;;;;11.29;49.29;102151.47;5005562;28;20037;-74
2021/09/20 04:55:20;;;;;;;5.15;0.68;;;;;;;11.29;49.13;102154.09;5006707;28;20049;-74
2021/09/20 04:57:48;;;;;;;2.13;0.70;;;;;;;11.32;49.52;102158.41;5004781;28;20439;-70
2021/09/20 05:00:14;;;;;;;1.52;0.63;;;;;;;11.28;49.33;102157.59;5005269;28;20084;-73
2021/09/20 05:02:40;;;;;;;1.60;0.77;;;;;;;11.33;49.47;102163.59;5004678;28;20046;-75
2021/09/20 05:05:07;;;;;;;2.35;0.63;;;;;;;11.28;49.39;102162.84;5004984;28;20505;-71
2021/09/20 05:07:35;;;;;;;3.85;1.48;;;;;;;11.34;49.29;102165.31;5005097;28;20076;-72
2021/09/20 05:10:00;;;;;;;4.40;1.35;;;;;;;11.37;49.13;102164.38;5002509;28;20037;-70
2021/09/20 05:12:26;;;;;;;2.60;0.80;;;;;;;11.30;49.24;102166.28;4992658;28;20120;-68
2021/09/20 05:14:51;;;;;;;3.58;0.93;;;;;;;11.34;49.16;102164.47;5004178;28;20442;-72
2021/09/20 05:17:17;;;;;;;2.90;1.00;;;;;;;11.31;49.38;102168.00;5006338;28;20030;-73
2021/09/20 05:19:42;;;;;;;4.68;0.77;;;;;;;11.27;49.40;102170.75;5007282;28;20038;-73
2021/09/20 05:22:08;;;;;;;4.15;0.77;;;;;;;11.24;49.13;102172.53;5003538;28;20065;-73
2021/09/20 05:24:33;;;;;;;1.98;0.85;;;;;;;11.20;49.08;102172.63;5002684;28;20045;-73
2021/09/20 05:26:59;;;;;;;2.17;0.82;;;;;;;11.21;49.27;102171.72;5005086;28;20045;-73
2021/09/20 05:29:24;;;;;;;2.55;0.60;;;;;;;11.14;49.22;102172.75;5004666;28;20363;-73
2021/09/20 05:31:49;;;;;;;3.72;1.20;;;;;;;11.24;49.38;102171.63;5021261;28;20026;-71
2021/09/20 05:34:15;;;;;;;4.45;0.80;;;;;;;11.17;49.30;102175.28;5006237;28;20093;-71
2021/09/20 05:36:41;;;;;;;5.68;0.93;;;;;;;11.34;48.83;102167.94;5004258;28;20053;-72
2021/09/20 05:39:07;;;;;;;1.30;0.80;;;;;;;11.43;48.82;102178.19;5009117;28;20041;-74
2021/09/20 05:41:32;;;;;;;2.38;0.70;;;;;;;11.51;48.26;102178.03;5006122;28;20034;-73
2021/09/20 05:43:57;;;;;;;5.10;1.20;;;;;;;11.56;48.27;102180.53;5005987;28;20077;-72
2021/09/20 05:46:23;;;;;;;3.00;0.82;;;;;;;11.61;48.23;102181.28;5004301;28;20172;-70
2021/09/20 05:48:48;;;;;;;3.35;0.95;;;;;;;11.60;47.68;102185.66;4998293;28;20101;-70
2021/09/20 05:51:15;;;;;;;5.05;0.95;;;;;;;11.55;48.19;102182.28;5002613;28;20113;-70
2021/09/20 05:53:41;;;;;;;2.17;0.75;;;;;;;11.50;47.98;102185.91;4992102;28;20423;-70
2021/09/20 05:56:07;;;;;;;3.25;0.70;;;;;;;11.63;47.50;102192.59;5005078;28;20042;-71
2021/09/20 05:58:32;;;;;;;3.90;1.00;;;;;;;11.59;47.86;102194.41;5003409;28;20038;-73
2021/09/20 06:00:57;;;;;;;2.20;0.90;;;;;;;11.73;47.57;102196.72;5006605;28;20030;-73
2021/09/20 06:03:23;;;;;;;3.78;1.17;;;;;;;11.76;47.83;102201.88;5009060;28;20045;-70
2021/09/20 06:05:48;;;;;;;1.65;0.77;;;;;;;11.82;47.74;102209.63;5004505;28;20038;-72
2021/09/20 06:08:14;;;;;;;3.65;0.95;;;;;;;11.87;47.03;102210.38;5005627;28;20474;-70
2021/09/20 06:10:40;;;;;;;2.40;1.10;;;;;;;11.96;47.19;102201.44;5006358;28;20041;-71
2021/09/20 06:13:07;;;;;;;4.70;1.17;;;;;;;12.05;46.69;102206.44;5004437;28;20113;-71
2021/09/20 06:15:36;;;;;;;1.45;0.70;;;;;;;12.05;46.60;102195.09;5006350;28;20050;-69
2021/09/20 06:18:03;;;;;;;3.65;0.70;;;;;;;12.04;46.92;102206.47;4992505;28;20064;-69
2021/09/20 06:20:29;;;;;;;4.78;1.00;;;;;;;12.11;46.42;102202.81;5006106;28;20594;-69
2021/09/20 06:22:54;;;;;;;1.90;0.80;;;;;;;12.20;46.44;102213.06;5000722;28;20033;-69
2021/09/20 06:25:20;;;;;;;3.50;0.82;;;;;;;12.20;46.43;102218.31;5004588;28;20080;-69
2021/09/20 06:27:45;;;;;;;1.88;1.02;;;;;;;12.27;45.73;102214.63;5003331;28;20033;-69
2021/09/20 06:30:11;;;;;;;2.88;1.13;;;;;;;12.24;45.53;102222.53;5002831;28;20542;-69
2021/09/20 06:32:37;;;;;;;4.28;1.05;;;;;;;12.33;45.92;102223.22;5002783;28;20022;-69
2021/09/20 06:35:03;;;;;;;4.13;1.38;;;;;;;12.34;45.97;102211.84;5001725;28;20411;-69
2021/09/20 06:37:29;;;;;;;8.77;1.48;;;;;;;12.25;45.97;102210.31;5000572;28;20609;-68
2021/09/20 06:39:54;;;;;;;3.33;1.17;;;;;;;12.36;45.83;102210.03;5003673;28;20040;-69
2021/09/20 06:42:20;;;;;;;3.20;1.25;;;;;;;12.27;46.11;102209.38;5003209;28;20045;-69
2021/09/20 06:44:50;;;;;;;2.55;1.08;;;;;;;12.22;46.49;102215.63;4990638;28;20084;-69
2021/09/20 06:47:16;;;;;;;1.25;0.68;;;;;;;12.16;46.21;102218.41;5004751;28;20034;-69
2021/09/20 06:49:41;;;;;;;2.88;1.02;;;;;;;12.06;46.66;102215.16;5007039;28;20052;-68
2021/09/20 06:52:06;;;;;;;3.03;0.88;;;;;;;11.99;46.78;102218.81;5007309;28;20469;-68
2021/09/20 06:54:32;;;;;;;5.38;1.05;;;;;;;12.12;46.58;102215.00;5009904;28;20065;-68
2021/09/20 06:56:57;;;;;;;1.90;0.88;;;;;;;12.03;46.63;102217.88;5007391;28;20124;-68
2021/09/20 06:59:23;;;;;;;2.13;0.95;;;;;;;12.11;46.65;102223.78;5007918;28;20113;-69
2021/09/20 07:01:48;;;;;;;4.70;1.10;;;;;;;12.34;46.39;102222.34;5005906;28;20124;-69
2021/09/20 07:04:14;;;;;;;2.20;1.10;;;;;;;12.46;46.28;102225.47;5005508;28;20072;-68
2021/09/20 07:06:39;;;;;;;2.30;0.80;;;;;;;12.29;46.19;102230.31;5006385;28;20125;-68
2021/09/20 07:09:04;;;;;;;2.97;0.70;;;;;;;12.42;45.69;102228.22;5007936;28;20049;-68
2021/09/20 07:11:30;;;;;;;2.25;0.75;;;;;;;12.37;45.61;102225.72;5004353;28;20483;-69
2021/09/20 07:13:55;;;;;;;4.47;1.17;;;;;;;12.41;45.68;102227.34;5005001;28;20290;-68
2021/09/20 07:16:21;;;;;;;3.40;1.20;;;;;;;12.45;45.62;102225.53;5006505;28;20035;-68
2021/09/20 07:18:46;;;;;;;2.45;0.98;;;;;;;12.38;45.75;102232.69;5004481;28;20061;-69
2021/09/20 07:21:12;;;;;;;2.05;0.98;;;;;;;12.63;45.77;102230.28;5007504;28;20033;-68
2021/09/20 07:23:37;;;;;;;5.20;1.42;;;;;;;12.88;44.82;102234.88;5005997;28;20063;-68
2021/09/20 07:26:03;;;;;;;2.80;0.82;;;;;;;12.91;44.97;102232.16;5005348;28;20501;-69
2021/09/20 07:28:29;;;;;;;1.92;0.82;;;;;;;13.01;44.37;102238.88;5005552;28;20044;-70
2021/09/20 07:30:54;;;;;;;4.15;1.13;;;;;;;13.01;44.46;102241.50;5005817;28;20018;-69
2021/09/20 07:33:20;;;;;;;2.10;1.40;;;;;;;13.32;44.05;102246.72;5005641;28;20052;-69
2021/09/20 07:35:45;;;;;;;5.57;1.75;;;;;;;13.33;43.48;102255.44;5005662;28;20029;-69
2021/09/20 07:38:13;;;;;;;1.95;0.93;;;;;;;13.15;43.51;102251.59;5003948;28;20511;-68
2021/09/20 07:40:39;;;;;;;3.53;1.02;;;;;;;13.42;43.26;102254.31;5021366;28;20041;-70
2021/09/20 07:43:05;;;;;;;2.85;1.00;;;;;;;13.54;42.57;102259.22;4999272;28;20029;-68
2021/09/20 07:45:31;;;;;;;3.97;0.98;;;;;;;13.41;42.17;102263.97;4999181;28;20037;-70
2021/09/20 07:47:57;;;;;;;4.65;1.45;;;;;;;13.21;43.24;102272.44;5003585;28;20037;-69
2021/09/20 07:50:23;;;;;;;6.45;1.45;;;;;;;13.23;42.63;102267.16;5003597;28;20103;-69
2021/09/20 07:52:49;;;;;;;3.35;1.25;;;;;;;13.09;43.16;102265.78;5004116;28;20029;-69
2021/09/20 07:55:16;;;;;;;3.88;0.73;;;;;;;13.36;42.97;102281.63;5001415;28;20178;-70
2021/09/20 07:57:43;;;;;;;3.35;1.10;;;;;;;13.28;42.51;102278.38;5003414;28;20136;-70
2021/09/20 08:00:09;;;;;;;3.08;0.85;;;;;;;13.39;42.37;102281.53;5001048;28;20314;-69
2021/09/20 08:02:35;;;;;;;4.70;1.73;;;;;;;13.45;42.00;102286.59;5001874;28;20374;-69
2021/09/20 08:05:00;;;;;;;2.72;0.93;;;;;;;13.53;41.51;102284.59;5002737;28;20033;-69
2021/09/20 08:07:26;;;;;;;1.25;0.63;;;;;;;13.63;41.51;102290.47;5001364;28;20046;-71
2021/09/20 08:09:51;;;;;;;2.30;0.60;;;;;;;13.44;42.08;102284.88;5004806;28;20103;-70
2021/09/20 08:12:17;;;;;;;1.80;0.70;;;;;;;13.52;41.78;102298.66;5004118;28;20037;-69
2021/09/20 08:14:42;;;;;;;1.42;0.88;;;;;;;13.39;41.64;102291.19;5001804;28;20065;-69
2021/09/20 08:17:09;;;;;;;1.33;0.65;;;;;;;13.38;41.82;102300.81;4997284;28;20568;-69
2021/09/20 08:19:34;;;;;;;4.15;1.45;;;;;;;13.38;42.29;102300.81;4996787;28;20045;-69
2021/09/20 08:22:00;;;;;;;2.58;0.90;;;;;;;13.61;41.65;102301.94;5001246;28;20164;-68
2021/09/20 08:24:25;;;;;;;2.15;0.73;;;;;;;13.88;40.79;102305.50;5000897;28;20417;-69
2021/09/20 08:26:51;;;;;;;3.95;1.45;;;;;;;14.20;40.36;102301.81;5003510;28;20184;-70
2021/09/20 08:29:17;;;;;;;3.30;1.13;;;;;;;14.28;40.15;102305.06;5005061;28;20045;-69
2021/09/20 08:31:43;;;;;;;2.05;0.90;;;;;;;14.26;40.48;102308.66;5002677;28;20037;-69
2021/09/20 08:34:08;;;;;;;4.00;1.08;;;;;;;14.02;39.61;102319.03;4999913;28;20080;-69
2021/09/20 08:36:34;;;;;;;2.10;0.98;;;;;;;14.00;39.76;102315.59;5003253;28;20042;-68
2021/09/20 08:38:59;;;;;;;2.45;1.00;;;;;;;13.94;39.33;102321.94;5001703;28;20065;-69
2021/09/20 08:41:25;;;;;;;2.78;0.95;;;;;;;14.18;39.55;102319.41;5002540;28;20204;-69
2021/09/20 08:43:51;;;;;;;2.58;0.68;;;;;;;14.13;38.39;102318.72;5003128;28;20371;-68
2021/09/20 08:46:16;;;;;;;3.95;0.90;;;;;;;14.24;38.24;102327.09;4999889;28;20042;-71
2021/09/20 08:48:46;;;;;;;4.68;1.27;;;;;;;14.58;37.93;102331.28;4997885;28;20432;-69
2021/09/20 08:51:13;;;;;;;2.63;1.30;;;;;;;14.63;37.80;102342.50;5001304;28;20088;-69
2021/09/20 08:53:39;;;;;;;1.20;0.60;;;;;;;14.62;37.29;102339.94;5000628;28;20049;-69
2021/09/20 08:56:06;;;;;;;1.83;0.55;;;;;;;14.47;35.95;102330.78;5001479;28;20563;-69
2021/09/20 08:58:32;;;;;;;3.42;0.90;;;;;;;14.24;36.55;102335.00;4989307;28;20472;-69
2021/09/20 09:00:57;;;;;;;5.53;0.80;;;;;;;14.48;37.09;102336.00;5000025;28;20037;-70
2021/09/20 09:03:25;;;;;;;1.85;0.60;;;;;;;14.75;36.96;102334.19;5001751;28;20038;-70
2021/09/20 09:05:51;;;;;;;3.20;0.52;;;;;;;14.74;35.95;102342.13;5001635;28;20037;-69
2021/09/20 09:08:20;;;;;;;1.92;0.73;;;;;;;14.77;36.26;102342.91;5003682;28;20121;-70
2021/09/20 09:11:00;;;;;;;2.83;1.13;;;;;;;15.00;35.26;102343.88;4999947;28;20056;-68
2021/09/20 09:13:38;;;;;;;3.08;0.95;;;;;;;15.05;35.10;102344.56;5016025;28;20269;-69
2021/09/20 09:16:18;;;;;;;2.10;0.70;;;;;;;15.07;35.20;102329.56;5001554;28;20510;-70
2021/09/20 09:19:03;;;;;;;1.77;0.70;;;;;;;15.25;35.55;102343.00;5001085;28;20048;-71
2021/09/20 09:21:31;;;;;;;2.45;0.65;;;;;;;15.42;35.28;102343.25;4992816;28;20034;-68
2021/09/20 09:24:11;;;;;;;1.73;1.05;;;;;;;15.25;35.04;102351.78;5001427;28;20065;-69
2021/09/20 09:26:37;;;;;;;4.30;0.68;;;;;;;15.24;34.81;102343.91;5015172;28;20038;-69
2021/09/20 09:29:12;;;;;;;1.15;0.57;;;;;;;15.20;34.74;102352.84;4999332;28;20581;-70
2021/09/20 09:31:39;;;;;;;1.70;0.63;;;;;;;15.25;34.15;102346.50;5015819;28;20029;-69
2021/09/20 09:34:19;;;;;;;3.45;0.60;;;;;;;15.33;35.02;102340.97;4991355;28;20033;-69
2021/09/20 09:36:46;;;;;;;1.55;0.50;;;;;;;15.55;34.44;102344.53;5001008;28;20042;-70
2021/09/20 09:39:11;;;;;;;2.03;0.60;;;;;;;15.74;33.98;102347.28;5001084;28;20703;-71
2021/09/20 09:41:40;;;;;;;4.97;0.63;;;;;;;15.50;33.51;102343.81;5001624;28;20454;-70
2021/09/20 09:44:08;;;;;;;1.58;0.52;;;;;;;15.35;33.65;102333.88;5001628;28;20049;-70
2021/09/20 09:46:39;;;;;;;4.60;0.90;;;;;;;15.56;32.96;102337.47;5001193;28;20741;-69
2021/09/20 09:49:17;;;;;;;1.07;0.40;;;;;;;15.21;33.82;102342.22;5000092;28;20049;-70
2021/09/20 09:52:03;;;;;;;2.08;0.50;;;;;;;15.14;33.86;102336.31;5001206;28;20568;-69
2021/09/20 09:54:40;;;;;;;1.20;0.50;;;;;;;15.08;33.55;102323.41;5000187;28;21032;-70
2021/09/20 09:57:24;;;;;;;3.28;0.60;;;;;;;15.00;34.49;102333.34;5004049;28;20037;-68
2021/09/20 09:59:55;;;;;;;1.63;1.13;;;;;;;15.34;33.84;102326.88;5001550;28;20034;-69
2021/09/20 10:02:27;;;;;;;3.47;0.80;;;;;;;15.37;33.76;102327.63;4993140;28;20037;-68
2021/09/20 10:05:13;;;;;;;2.53;0.68;;;;;;;15.90;32.44;102331.72;4999066;28;20565;-68
2021/09/20 10:07:42;;;;;;;1.40;0.70;;;;;;;16.39;32.46;102334.19;4993215;28;20042;-68
2021/09/20 10:10:10;;;;;;;2.47;0.75;;;;;;;16.78;31.28;102334.31;5001289;28;20108;-68
2021/09/20 10:12:37;;;;;;;3.90;0.85;;;;;;;16.67;30.62;102330.41;5000413;28;20068;-69
2021/09/20 10:15:05;;;;;;;3.08;0.70;;;;;;;16.60;30.97;102329.81;5000802;28;20070;-69
2021/09/20 10:17:30;;;;;;;5.03;0.93;;;;;;;16.70;31.39;102325.00;5017804;28;20293;-68
2021/09/20 10:19:57;;;;;;;3.05;1.08;;;;;;;16.90;31.60;102329.44;5003211;28;20726;-68
2021/09/20 10:22:24;;;;;;;4.55;0.93;;;;;;;16.96;31.45;102331.81;5004132;28;20673;-68
2021/09/20 10:24:52;;;;;;;1.65;0.98;;;;;;;16.89;30.93;102325.06;4997897;28;20073;-68
2021/09/20 10:27:21;;;;;;;1.67;0.75;;;;;;;17.32;31.10;102326.66;5003929;28;20030;-71
2021/09/20 10:29:54;;;;;;;2.00;0.77;;;;;;;17.29;30.74;102336.50;5006421;28;20029;-68
2021/09/20 10:32:20;;;;;;;1.35;0.47;;;;;;;16.78;30.21;102336.97;4994976;28;20037;-70
2021/09/20 10:34:48;;;;;;;2.00;0.47;;;;;;;16.77;29.61;102335.22;5003450;28;20030;-69
2021/09/20 10:37:16;;;;;;;3.40;1.00;;;;;;;16.65;29.99;102325.19;5016880;28;20073;-69
2021/09/20 10:39:56;;;;;;;1.63;0.45;;;;;;;16.94;31.15;102334.50;5003511;28;20041;-68
2021/09/20 10:42:33;;;;;;;2.72;0.40;;;;;;;16.49;30.39;102334.66;5004200;28;20782;-68
2021/09/20 10:44:59;;;;;;;1.45;0.75;;;;;;;16.48;30.64;102336.44;5004880;28;20041;-69
2021/09/20 10:47:48;;;;;;;5.22;0.82;;;;;;;16.63;30.44;102329.66;5003127;28;20034;-67
2021/09/20 10:50:14;;;;;;;2.05;0.77;;;;;;;16.70;29.64;102325.84;5003877;28;20091;-69
2021/09/20 10:53:15;;;;;;;2.67;0.88;;;;;;;16.72;29.81;102324.00;5018401;28;20065;-69
2021/09/20 10:56:03;;;;;;;2.50;0.70;;;;;;;16.81;29.29;102328.91;4990438;28;20724;-69
2021/09/20 10:58:34;;;;;;;3.80;1.58;;;;;;;16.95;29.33;102330.09;5003706;28;20029;-68
2021/09/20 11:01:12;;;;;;;2.35;0.65;;;;;;;16.79;29.66;102320.19;5004085;28;20033;-69
2021/09/20 11:03:40;;;;;;;2.88;0.55;;;;;;;17.23;29.40;102327.06;5003636;28;20033;-69
2021/09/20 11:06:22;;;;;;;0.90;0.40;;;;;;;17.15;29.35;102327.41;5000280;28;20032;-69
2021/09/20 11:09:08;;;;;;;1.48;0.45;;;;;;;17.05;28.77;102326.13;5001988;28;20493;-69
2021/09/20 11:11:36;;;;;;;1.85;0.40;;;;;;;16.95;28.54;102330.09;5003689;28;20037;-68
2021/09/20 11:14:04;;;;;;;1.77;0.60;;;;;;;16.49;29.06;102325.00;5002818;28;20053;-69
2021/09/20 11:17:01;;;;;;;2.00;0.60;;;;;;;16.74;28.49;102331.84;5003651;28;20042;-69
2021/09/20 11:19:33;;;;;;;1.60;0.65;;;;;;;16.31;30.08;102337.16;4954220;28;20443;-69
2021/09/20 11:22:14;;;;;;;1.67;0.50;;;;;;;16.70;29.30;102331.13;5004236;28;20746;-68
2021/09/20 11:24:44;;;;;;;0.90;0.23;;;;;;;16.96;30.03;102342.38;5003469;28;20030;-68